Elon College, North Carolina
Current Conditions -  °F | °C
As of 9:54 PM on Saturday 25 Oct 2014 (Local Time) from KBUY Reporting Station
Clear Clear  
Wind Chill: 57°   Ceiling: Unl
Heat Index: 57°   Visibility: 10mi
Dew Point: 39°   Wind: 7mph
Humidity: 51%   Direction: 230°SW
Pressure: 29.89"   Gusts: NA
Location:  36.2189°N, 79.4807°W
Report Text: KBUY 260154Z AUTO 23006KT 10SM CLR 14/04 A2989 RMK AO2 SLP120 T01390039
Loading
Personal Weather Stations






























Interactive Weather Map
Tropical Storm Tracking
New forecast layout! Learn more

10-Day Weather Forecast

Advertisements
Track Severe Weather on mobile